createdAt,value
2022-09-22T00:00:09.037Z,80.48
2022-09-22T00:02:35.661Z,80.13
2022-09-22T00:05:02.276Z,80.11
2022-09-22T00:07:29.643Z,79.89
2022-09-22T00:09:56.539Z,79.98
2022-09-22T00:12:23.356Z,79.69
2022-09-22T00:14:49.980Z,79.97
2022-09-22T00:17:16.568Z,80.28
2022-09-22T00:19:43.169Z,80.49
2022-09-22T00:22:09.965Z,79.97
2022-09-22T00:24:36.576Z,79.97
2022-09-22T00:27:03.255Z,79.96
2022-09-22T00:29:30.585Z,79.50
2022-09-22T00:31:57.766Z,79.68
2022-09-22T00:34:26.254Z,79.48
2022-09-22T00:36:53.346Z,79.24
2022-09-22T00:39:20.314Z,80.07
2022-09-22T00:41:49.453Z,80.41
2022-09-22T00:44:16.003Z,81.15
2022-09-22T00:46:44.989Z,81.09
2022-09-22T00:49:12.625Z,81.06
2022-09-22T00:51:41.915Z,80.97
2022-09-22T00:54:15.765Z,80.96
2022-09-22T00:56:55.651Z,80.92
2022-09-22T00:59:23.295Z,81.85
2022-09-22T01:01:50.105Z,81.60
2022-09-22T01:04:17.243Z,81.45
2022-09-22T01:06:44.469Z,81.45
2022-09-22T01:09:11.341Z,81.66
2022-09-22T01:11:40.018Z,81.17
2022-09-22T01:14:15.974Z,80.57
2022-09-22T01:17:17.860Z,80.40
2022-09-22T01:20:09.281Z,80.69
2022-09-22T01:22:55.817Z,81.05
2022-09-22T01:25:22.375Z,80.92
2022-09-22T01:28:00.979Z,80.67
2022-09-22T01:30:37.203Z,80.47
2022-09-22T01:33:43.548Z,80.19
2022-09-22T01:36:10.238Z,80.31
2022-09-22T01:39:08.465Z,80.10
2022-09-22T01:41:48.890Z,80.57
2022-09-22T01:44:45.172Z,80.68
2022-09-22T01:47:28.483Z,80.53
2022-09-22T01:49:59.976Z,80.48
2022-09-22T01:52:31.427Z,81.17
2022-09-22T01:55:15.080Z,81.08
2022-09-22T01:57:50.444Z,80.92
2022-09-22T02:00:17.401Z,80.38
2022-09-22T02:02:50.669Z,80.48
2022-09-22T02:05:52.079Z,80.20
2022-09-22T02:08:24.901Z,80.39
2022-09-22T02:10:52.931Z,80.43
2022-09-22T02:13:19.600Z,80.67
2022-09-22T02:16:01.280Z,80.85
2022-09-22T02:18:56.664Z,82.77
2022-09-22T02:21:25.362Z,83.31
2022-09-22T02:23:51.977Z,83.02
2022-09-22T02:26:23.919Z,82.91
2022-09-22T02:28:56.220Z,82.62
2022-09-22T02:31:24.707Z,82.27
2022-09-22T02:33:52.119Z,83.19
2022-09-22T02:36:26.037Z,83.37
2022-09-22T02:39:08.043Z,83.56
2022-09-22T02:41:54.855Z,83.37
2022-09-22T02:44:27.071Z,83.15
2022-09-22T02:47:00.570Z,83.07
2022-09-22T02:49:27.912Z,82.53
2022-09-22T02:51:54.901Z,82.33
2022-09-22T02:54:22.569Z,82.55
2022-09-22T02:56:49.340Z,82.32
2022-09-22T02:59:15.979Z,82.51
2022-09-22T03:01:42.699Z,82.82
2022-09-22T03:04:09.324Z,83.21
2022-09-22T03:06:36.824Z,82.98
2022-09-22T03:09:03.636Z,83.54
2022-09-22T03:11:30.253Z,83.58
2022-09-22T03:13:56.951Z,83.80
2022-09-22T03:16:23.649Z,83.66
2022-09-22T03:18:50.299Z,83.50
2022-09-22T03:21:16.898Z,82.96
2022-09-22T03:23:43.610Z,83.03
2022-09-22T03:26:10.217Z,82.55
2022-09-22T03:28:36.848Z,82.25
2022-09-22T03:31:03.522Z,82.32
2022-09-22T03:33:30.171Z,82.27
2022-09-22T03:35:56.813Z,81.61
2022-09-22T03:38:23.628Z,81.42
2022-09-22T03:40:52.679Z,81.40
2022-09-22T03:43:20.110Z,81.56
2022-09-22T03:45:47.039Z,81.25
2022-09-22T03:48:13.767Z,81.67
2022-09-22T03:50:40.388Z,81.96
2022-09-22T03:53:07.008Z,82.63
2022-09-22T03:55:34.255Z,83.06
2022-09-22T03:58:00.877Z,83.13
2022-09-22T04:00:28.481Z,82.93
2022-09-22T04:02:55.152Z,82.94
2022-09-22T04:05:21.780Z,82.44
2022-09-22T04:07:48.516Z,81.96
2022-09-22T04:10:15.140Z,82.22
2022-09-22T04:12:41.774Z,82.56
2022-09-22T04:15:09.116Z,82.53
2022-09-22T04:17:37.125Z,82.13
2022-09-22T04:20:05.422Z,82.34
2022-09-22T04:22:32.283Z,82.02
2022-09-22T04:24:58.946Z,81.66
2022-09-22T04:27:25.600Z,81.23
2022-09-22T04:29:52.259Z,81.45
2022-09-22T04:32:19.387Z,82.12
2022-09-22T04:34:46.032Z,81.96
2022-09-22T04:37:12.699Z,82.32
2022-09-22T04:39:39.568Z,82.38
2022-09-22T04:42:06.587Z,81.99
2022-09-22T04:44:35.100Z,81.75
2022-09-22T04:47:02.134Z,82.14
2022-09-22T04:49:28.726Z,82.27
2022-09-22T04:51:55.373Z,82.63
2022-09-22T04:54:22.041Z,82.50
2022-09-22T04:56:48.678Z,83.00
2022-09-22T04:59:15.341Z,82.89
2022-09-22T05:01:42.041Z,82.53
2022-09-22T05:04:09.416Z,82.34
2022-09-22T05:06:36.480Z,82.11
2022-09-22T05:09:03.793Z,82.38
2022-09-22T05:11:31.404Z,82.07
2022-09-22T05:13:58.727Z,81.71
2022-09-22T05:16:26.139Z,82.24
2022-09-22T05:18:53.046Z,81.99
2022-09-22T05:21:19.653Z,82.31
2022-09-22T05:23:46.761Z,82.38
2022-09-22T05:26:13.639Z,82.69
2022-09-22T05:28:41.012Z,82.86
2022-09-22T05:31:07.996Z,82.75
2022-09-22T05:33:34.662Z,82.71
2022-09-22T05:36:01.401Z,82.41
2022-09-22T05:38:29.005Z,83.12
2022-09-22T05:40:55.618Z,83.74
2022-09-22T05:43:22.236Z,84.06
2022-09-22T05:45:49.926Z,84.28
2022-09-22T05:48:16.647Z,84.37
2022-09-22T05:50:44.020Z,84.44
2022-09-22T05:53:11.553Z,84.30
2022-09-22T05:55:39.458Z,84.17
2022-09-22T05:58:06.132Z,83.38
2022-09-22T06:00:33.184Z,83.29
2022-09-22T06:02:59.933Z,83.31
2022-09-22T06:05:26.833Z,83.32
2022-09-22T06:08:01.561Z,82.71
2022-09-22T06:10:28.490Z,82.73
2022-09-22T06:13:01.770Z,82.94
2022-09-22T06:15:28.832Z,82.80
2022-09-22T06:17:56.348Z,82.86
2022-09-22T06:20:23.611Z,83.34
2022-09-22T06:22:50.250Z,83.08
2022-09-22T06:25:17.029Z,83.00
2022-09-22T06:27:44.161Z,83.24
2022-09-22T06:30:12.016Z,83.24
2022-09-22T06:32:43.933Z,83.97
2022-09-22T06:35:10.566Z,84.27
2022-09-22T06:37:38.721Z,84.32
2022-09-22T06:40:08.346Z,84.26
2022-09-22T06:42:35.791Z,84.51
2022-09-22T06:45:04.759Z,85.06
2022-09-22T06:47:33.032Z,85.28
2022-09-22T06:50:02.416Z,85.36
2022-09-22T06:52:29.046Z,86.05
2022-09-22T06:54:58.655Z,86.41
2022-09-22T06:57:27.980Z,86.73
2022-09-22T06:59:54.670Z,86.51
2022-09-22T07:02:23.314Z,86.18
2022-09-22T07:04:50.684Z,86.54
2022-09-22T07:07:17.532Z,86.74
2022-09-22T07:09:44.181Z,87.64
2022-09-22T07:12:10.785Z,87.67
2022-09-22T07:14:37.449Z,88.82
2022-09-22T07:17:04.077Z,89.10
2022-09-22T07:19:33.276Z,90.30
2022-09-22T07:21:59.900Z,90.47
2022-09-22T07:24:27.987Z,89.92
2022-09-22T07:26:54.612Z,89.91
2022-09-22T07:29:21.405Z,90.36
2022-09-22T07:31:48.117Z,91.13
2022-09-22T07:34:15.232Z,92.22
2022-09-22T07:36:41.908Z,92.33
2022-09-22T07:39:11.405Z,91.90
2022-09-22T07:41:44.432Z,90.71
2022-09-22T07:44:31.501Z,90.98
2022-09-22T07:46:58.282Z,91.36
2022-09-22T07:49:24.943Z,91.44
2022-09-22T07:51:55.218Z,91.30
2022-09-22T07:54:22.622Z,91.10
2022-09-22T07:56:56.123Z,91.14
2022-09-22T07:59:22.744Z,91.27
2022-09-22T08:01:51.604Z,91.50
2022-09-22T08:04:23.096Z,89.64
2022-09-22T08:06:52.417Z,88.60
2022-09-22T08:09:19.215Z,88.18
2022-09-22T08:11:48.676Z,86.78
2022-09-22T08:14:18.707Z,85.56
2022-09-22T08:16:46.105Z,85.14
2022-09-22T08:19:14.057Z,84.35
2022-09-22T08:21:48.967Z,82.85
2022-09-22T08:24:23.311Z,82.64
2022-09-22T08:26:52.313Z,76.23
2022-09-22T08:29:19.375Z,76.11
2022-09-22T08:31:47.608Z,71.50
2022-09-22T08:34:16.504Z,69.75
2022-09-22T08:36:47.484Z,61.69
2022-09-22T08:39:15.113Z,59.93
2022-09-22T08:42:08.568Z,59.75
2022-09-22T08:45:03.191Z,58.16
2022-09-22T08:48:01.538Z,58.38
2022-09-22T08:51:17.395Z,55.24
2022-09-22T08:53:49.788Z,55.10
2022-09-22T08:56:29.361Z,54.65
2022-09-22T08:59:09.241Z,52.42
2022-09-22T09:01:42.674Z,52.42
2022-09-22T09:04:48.532Z,52.87
2022-09-22T09:07:17.945Z,51.98
2022-09-22T09:09:50.530Z,52.19
2022-09-22T09:12:19.779Z,51.27
2022-09-22T09:15:05.207Z,51.43
2022-09-22T09:17:36.788Z,50.83
2022-09-22T09:20:17.616Z,52.17
2022-09-22T09:22:49.214Z,50.83
2022-09-22T09:25:24.114Z,51.31
2022-09-22T09:27:55.298Z,48.83
2022-09-22T09:30:22.163Z,49.53
2022-09-22T09:33:02.450Z,49.22
2022-09-22T09:35:47.953Z,48.50
2022-09-22T09:38:17.334Z,48.03
2022-09-22T09:40:52.946Z,47.37
2022-09-22T09:43:22.194Z,47.87
2022-09-22T09:46:07.472Z,46.21
2022-09-22T09:48:42.155Z,46.72
2022-09-22T09:51:12.968Z,46.32
2022-09-22T09:53:47.719Z,45.50
2022-09-22T09:56:22.015Z,44.94
2022-09-22T09:59:18.462Z,46.28
2022-09-22T10:01:47.141Z,46.43
2022-09-22T10:04:29.031Z,46.48
2022-09-22T10:07:15.648Z,45.76
2022-09-22T10:09:42.899Z,45.25
2022-09-22T10:12:24.563Z,44.07
2022-09-22T10:14:55.912Z,44.22
2022-09-22T10:17:28.776Z,42.20
2022-09-22T10:20:16.214Z,43.57
2022-09-22T10:22:43.256Z,43.31
2022-09-22T10:25:22.709Z,42.65
2022-09-22T10:27:59.932Z,43.68
2022-09-22T10:30:27.605Z,44.33
2022-09-22T10:33:20.607Z,42.87
2022-09-22T10:36:09.257Z,41.61
2022-09-22T10:38:41.445Z,42.12
2022-09-22T10:41:12.460Z,41.70
2022-09-22T10:44:34.549Z,42.99
2022-09-22T10:47:33.270Z,41.01
2022-09-22T10:50:31.391Z,41.27
2022-09-22T10:53:26.815Z,40.02
2022-09-22T10:56:05.804Z,41.29
2022-09-22T10:58:38.625Z,41.58
2022-09-22T11:01:39.518Z,40.35
2022-09-22T11:04:12.282Z,40.48
2022-09-22T11:07:07.319Z,39.67
2022-09-22T11:10:18.680Z,38.13
2022-09-22T11:13:07.539Z,39.09
2022-09-22T11:15:40.049Z,38.62
2022-09-22T11:18:07.115Z,38.03
2022-09-22T11:20:48.911Z,39.08
2022-09-22T11:23:30.057Z,39.82
2022-09-22T11:26:15.328Z,38.13
2022-09-22T11:29:00.821Z,37.73
2022-09-22T11:31:49.856Z,36.83
2022-09-22T11:34:43.192Z,36.92
2022-09-22T11:37:27.385Z,39.45
2022-09-22T11:40:27.290Z,38.74
2022-09-22T11:43:31.624Z,38.28
2022-09-22T11:46:07.024Z,37.04
2022-09-22T11:48:55.519Z,38.32
2022-09-22T11:51:31.309Z,36.61
2022-09-22T11:54:03.785Z,35.13
2022-09-22T11:56:40.237Z,35.11
2022-09-22T11:59:33.357Z,36.35
2022-09-22T12:02:04.731Z,35.13
2022-09-22T12:04:34.336Z,35.50
2022-09-22T12:07:03.334Z,35.64
2022-09-22T12:09:47.012Z,33.96
2022-09-22T12:12:18.025Z,34.65
2022-09-22T12:14:46.460Z,34.89
2022-09-22T12:17:22.906Z,34.30
2022-09-22T12:19:53.476Z,34.45
2022-09-22T12:22:31.351Z,33.92
2022-09-22T12:24:58.552Z,34.26
2022-09-22T12:27:27.556Z,34.79
2022-09-22T12:29:55.534Z,35.19
2022-09-22T12:32:35.743Z,32.50
2022-09-22T12:35:02.761Z,31.69
2022-09-22T12:37:32.188Z,30.08
2022-09-22T12:40:26.414Z,29.95
2022-09-22T12:42:53.787Z,30.09
2022-09-22T12:45:32.023Z,31.45
2022-09-22T12:48:00.956Z,31.27
2022-09-22T12:50:38.808Z,30.97
2022-09-22T12:53:11.161Z,31.90
2022-09-22T12:55:38.629Z,32.26
2022-09-22T12:58:28.413Z,31.31
2022-09-22T13:00:56.570Z,31.43
2022-09-22T13:03:26.058Z,31.51
2022-09-22T13:06:25.633Z,31.61
2022-09-22T13:08:54.906Z,31.84
2022-09-22T13:11:59.898Z,32.26
2022-09-22T13:15:05.406Z,31.34
2022-09-22T13:17:46.871Z,30.31
2022-09-22T13:20:16.156Z,30.61
2022-09-22T13:22:43.207Z,31.06
2022-09-22T13:25:36.053Z,29.92
2022-09-22T13:28:23.453Z,31.82
2022-09-22T13:31:06.114Z,32.44
2022-09-22T13:33:35.258Z,32.35
2022-09-22T13:36:05.922Z,32.50
2022-09-22T13:38:59.127Z,32.65
2022-09-22T13:41:27.673Z,31.53
2022-09-22T13:44:00.140Z,31.25
2022-09-22T13:46:50.317Z,30.48
2022-09-22T13:49:38.019Z,31.10
2022-09-22T13:52:13.024Z,30.50
2022-09-22T13:54:40.594Z,30.42
2022-09-22T13:57:18.236Z,29.94
2022-09-22T13:59:45.207Z,28.68
2022-09-22T14:02:13.665Z,30.59
2022-09-22T14:04:52.600Z,31.33
2022-09-22T14:07:23.736Z,31.32
2022-09-22T14:09:50.880Z,31.43
2022-09-22T14:12:17.819Z,30.36
2022-09-22T14:14:44.672Z,31.04
2022-09-22T14:17:22.357Z,30.06
2022-09-22T14:19:57.649Z,30.74
2022-09-22T14:22:25.947Z,30.92
2022-09-22T14:24:55.946Z,31.28
2022-09-22T14:27:28.762Z,31.04
2022-09-22T14:29:56.524Z,30.50
2022-09-22T14:32:25.886Z,29.71
2022-09-22T14:34:59.390Z,30.05
2022-09-22T14:37:30.166Z,30.23
2022-09-22T14:39:57.964Z,30.39
2022-09-22T14:42:29.514Z,29.86
2022-09-22T14:45:08.541Z,29.66
2022-09-22T14:47:40.629Z,29.50
2022-09-22T14:50:13.179Z,28.98
2022-09-22T14:52:45.889Z,29.78
2022-09-22T14:55:29.217Z,29.13
2022-09-22T14:57:56.442Z,29.49
2022-09-22T15:00:41.840Z,29.22
2022-09-22T15:03:21.908Z,30.27
2022-09-22T15:05:50.314Z,28.70
2022-09-22T15:08:27.820Z,29.38
2022-09-22T15:10:56.794Z,28.41
2022-09-22T15:13:37.280Z,28.22
2022-09-22T15:16:04.750Z,28.59
2022-09-22T15:18:31.577Z,28.55
2022-09-22T15:21:06.657Z,28.09
2022-09-22T15:23:42.018Z,26.94
2022-09-22T15:26:24.899Z,28.37
2022-09-22T15:28:53.787Z,29.12
2022-09-22T15:31:27.046Z,30.15
2022-09-22T15:34:01.366Z,31.63
2022-09-22T15:36:30.648Z,31.78
2022-09-22T15:38:59.825Z,33.06
2022-09-22T15:41:27.101Z,32.64
2022-09-22T15:43:53.913Z,33.65
2022-09-22T15:46:31.648Z,34.18
2022-09-22T15:49:08.794Z,34.67
2022-09-22T15:51:35.569Z,36.01
2022-09-22T15:54:02.211Z,35.51
2022-09-22T15:56:29.704Z,36.34
2022-09-22T15:58:59.085Z,37.35
2022-09-22T16:01:29.585Z,37.44
2022-09-22T16:04:00.202Z,37.42
2022-09-22T16:06:27.499Z,38.00
2022-09-22T16:08:55.474Z,38.49
2022-09-22T16:11:30.495Z,39.23
2022-09-22T16:14:03.612Z,39.27
2022-09-22T16:16:32.384Z,39.28
2022-09-22T16:19:00.072Z,39.29
2022-09-22T16:21:33.216Z,39.39
2022-09-22T16:24:04.836Z,40.27
2022-09-22T16:26:31.965Z,40.44
2022-09-22T16:28:59.205Z,40.89
2022-09-22T16:31:27.661Z,41.30
2022-09-22T16:33:55.895Z,41.77
2022-09-22T16:36:23.287Z,42.37
2022-09-22T16:38:50.205Z,42.07
2022-09-22T16:41:27.607Z,42.41
2022-09-22T16:43:55.227Z,42.73
2022-09-22T16:46:33.744Z,43.78
2022-09-22T16:49:12.833Z,43.22
2022-09-22T16:51:41.877Z,43.86
2022-09-22T16:54:14.282Z,44.05
2022-09-22T16:56:46.165Z,45.87
2022-09-22T16:59:15.601Z,46.50
2022-09-22T17:01:43.916Z,47.74
2022-09-22T17:04:12.514Z,48.17
2022-09-22T17:06:40.768Z,48.76
2022-09-22T17:09:08.462Z,49.78
2022-09-22T17:11:37.563Z,50.11
2022-09-22T17:14:10.019Z,50.16
2022-09-22T17:16:40.275Z,50.92
2022-09-22T17:19:16.189Z,51.81
2022-09-22T17:21:43.240Z,51.71
2022-09-22T17:24:09.958Z,51.73
2022-09-22T17:26:45.474Z,52.81
2022-09-22T17:29:12.241Z,53.37
2022-09-22T17:31:41.037Z,53.94
2022-09-22T17:34:07.967Z,54.62
2022-09-22T17:36:34.721Z,54.90
2022-09-22T17:39:01.921Z,55.55
2022-09-22T17:41:31.570Z,55.43
2022-09-22T17:44:01.308Z,55.49
2022-09-22T17:46:33.724Z,56.23
2022-09-22T17:49:19.584Z,56.73
2022-09-22T17:52:08.702Z,57.87
2022-09-22T17:54:58.162Z,58.26
2022-09-22T17:57:29.513Z,58.51
2022-09-22T17:59:56.897Z,59.35
2022-09-22T18:02:28.358Z,59.42
2022-09-22T18:04:55.319Z,59.98
2022-09-22T18:07:24.468Z,60.36
2022-09-22T18:09:52.149Z,61.59
2022-09-22T18:12:21.800Z,62.36
2022-09-22T18:14:50.243Z,62.09
2022-09-22T18:17:19.691Z,62.76
2022-09-22T18:19:47.302Z,63.26
2022-09-22T18:22:17.041Z,63.85
2022-09-22T18:24:44.357Z,64.32
2022-09-22T18:27:13.772Z,63.75
2022-09-22T18:29:40.540Z,63.46
2022-09-22T18:32:07.149Z,63.85
2022-09-22T18:34:33.894Z,64.49
2022-09-22T18:37:01.605Z,64.92
2022-09-22T18:39:28.751Z,65.05
2022-09-22T18:41:55.462Z,64.80
2022-09-22T18:44:22.645Z,66.15
2022-09-22T18:46:49.454Z,66.71
2022-09-22T18:49:16.665Z,66.15
2022-09-22T18:51:49.212Z,66.22
2022-09-22T18:54:21.812Z,67.08
2022-09-22T18:56:49.595Z,67.16
2022-09-22T18:59:18.858Z,66.52
2022-09-22T19:01:46.356Z,67.67
2022-09-22T19:04:17.139Z,67.61
2022-09-22T19:07:06.702Z,68.33
2022-09-22T19:09:34.428Z,69.06
2022-09-22T19:12:01.241Z,68.67
2022-09-22T19:14:27.848Z,68.63
2022-09-22T19:16:54.501Z,68.69
2022-09-22T19:19:22.485Z,69.75
2022-09-22T19:21:50.371Z,70.45
2022-09-22T19:24:17.648Z,70.80
2022-09-22T19:26:44.578Z,70.73
2022-09-22T19:29:12.205Z,71.19
2022-09-22T19:31:41.557Z,71.21
2022-09-22T19:34:09.151Z,72.39
2022-09-22T19:36:35.924Z,71.77
2022-09-22T19:39:03.260Z,71.96
2022-09-22T19:41:29.941Z,71.73
2022-09-22T19:43:57.120Z,71.15
2022-09-22T19:46:24.405Z,70.82
2022-09-22T19:48:51.378Z,71.63
2022-09-22T19:51:18.003Z,71.60
2022-09-22T19:53:44.633Z,71.10
2022-09-22T19:56:11.293Z,70.97
2022-09-22T19:58:38.593Z,72.50
2022-09-22T20:01:07.967Z,73.57
2022-09-22T20:03:34.600Z,73.12
2022-09-22T20:06:01.196Z,72.75
2022-09-22T20:08:27.883Z,73.48
2022-09-22T20:11:16.382Z,73.62
2022-09-22T20:14:02.468Z,73.25
2022-09-22T20:16:30.989Z,73.63
2022-09-22T20:18:57.861Z,73.69
2022-09-22T20:21:26.089Z,73.80
2022-09-22T20:23:52.727Z,73.76
2022-09-22T20:26:21.644Z,74.01
2022-09-22T20:28:48.353Z,74.14
2022-09-22T20:31:16.754Z,74.58
2022-09-22T20:33:43.454Z,75.42
2022-09-22T20:36:11.444Z,74.53
2022-09-22T20:38:38.416Z,73.68
2022-09-22T20:41:05.155Z,74.70
2022-09-22T20:43:31.835Z,74.84
2022-09-22T20:46:04.746Z,75.39
2022-09-22T20:48:31.428Z,75.01
2022-09-22T20:50:58.754Z,74.81
2022-09-22T20:53:26.505Z,75.31
2022-09-22T20:56:01.338Z,75.45
2022-09-22T20:58:29.167Z,76.11
2022-09-22T21:00:55.908Z,74.86
2022-09-22T21:03:22.628Z,75.63
2022-09-22T21:05:49.274Z,75.88
2022-09-22T21:08:34.687Z,75.07
2022-09-22T21:11:01.446Z,75.63
2022-09-22T21:13:28.113Z,75.83
2022-09-22T21:16:03.632Z,75.59
2022-09-22T21:18:34.113Z,75.09
2022-09-22T21:21:01.854Z,75.52
2022-09-22T21:23:28.989Z,75.33
2022-09-22T21:26:00.544Z,75.63
2022-09-22T21:28:27.965Z,75.15
2022-09-22T21:31:01.070Z,74.96
2022-09-22T21:33:28.295Z,74.85
2022-09-22T21:36:04.863Z,74.93
2022-09-22T21:38:31.834Z,75.42
2022-09-22T21:41:00.144Z,75.11
2022-09-22T21:43:27.982Z,74.94
2022-09-22T21:46:05.248Z,75.81
2022-09-22T21:48:33.392Z,76.57
2022-09-22T21:51:12.006Z,75.95
2022-09-22T21:53:39.554Z,75.68
2022-09-22T21:56:08.756Z,76.59
2022-09-22T21:58:37.121Z,77.35
2022-09-22T22:01:12.491Z,77.71
2022-09-22T22:03:42.331Z,77.49
2022-09-22T22:06:18.525Z,77.16
2022-09-22T22:08:45.404Z,76.32
2022-09-22T22:11:21.214Z,76.41
2022-09-22T22:13:52.176Z,77.42
2022-09-22T22:16:21.104Z,76.56
2022-09-22T22:18:48.311Z,76.44
2022-09-22T22:21:35.362Z,76.60
2022-09-22T22:24:24.172Z,77.21
2022-09-22T22:26:59.113Z,76.76
2022-09-22T22:29:26.924Z,76.36
2022-09-22T22:31:54.072Z,76.65
2022-09-22T22:34:22.641Z,76.36
2022-09-22T22:36:49.461Z,76.18
2022-09-22T22:39:16.473Z,76.39
2022-09-22T22:41:43.153Z,76.67
2022-09-22T22:44:09.904Z,76.79
2022-09-22T22:46:36.596Z,76.56
2022-09-22T22:49:03.412Z,76.89
2022-09-22T22:51:30.103Z,76.85
2022-09-22T22:53:56.762Z,76.95
2022-09-22T22:56:27.660Z,77.18
2022-09-22T22:58:54.298Z,76.78
2022-09-22T23:01:25.783Z,77.21
2022-09-22T23:03:56.398Z,76.90
2022-09-22T23:06:26.643Z,76.78
2022-09-22T23:08:53.981Z,76.81
2022-09-22T23:11:23.261Z,76.83
2022-09-22T23:14:03.852Z,77.16
2022-09-22T23:16:33.033Z,77.22
2022-09-22T23:19:01.894Z,77.23
2022-09-22T23:21:30.407Z,77.13
2022-09-22T23:23:57.168Z,77.06
2022-09-22T23:26:27.971Z,77.50
2022-09-22T23:28:54.857Z,77.28
2022-09-22T23:31:22.226Z,77.21
2022-09-22T23:33:50.112Z,77.17
2022-09-22T23:36:19.995Z,77.21
2022-09-22T23:38:46.649Z,77.41
2022-09-22T23:41:13.534Z,77.58
2022-09-22T23:43:40.509Z,77.16
2022-09-22T23:46:07.825Z,77.64
2022-09-22T23:48:35.677Z,78.11
2022-09-22T23:51:02.836Z,78.10
2022-09-22T23:53:32.676Z,78.32
2022-09-22T23:55:59.766Z,77.97
2022-09-22T23:58:26.441Z,77.57
